Time;durP1;ratioP1;P1;durP2;ratioP2;P2;SDS_P1;SDS_P2;PMS_P1;PMS_P2;Temp;Humidity;BMP_temperature;BMP_pressure;BME280_temperature;BME280_humidity;BME280_pressure;Samples;Min_cycle;Max_cycle;Signal;HPM_P1;HPM_P2
2023/03/31 00:02:20;;;;;;;26.83;20.40;;;;;;;;;;5016536;28;20032;-74
2023/03/31 00:04:51;;;;;;;25.95;20.20;;;;;;;;;;5013208;28;20547;-74
2023/03/31 00:07:20;;;;;;;28.92;21.60;;;;;;;;;;5012974;28;20447;-76
2023/03/31 00:09:47;;;;;;;26.48;20.33;;;;;;;;;;5011439;28;20032;-76
2023/03/31 00:12:15;;;;;;;28.02;20.90;;;;;;;;;;5010137;28;20041;-75
2023/03/31 00:14:41;;;;;;;39.85;30.17;;;;;;;;;;5017479;28;20043;-75
2023/03/31 00:17:07;;;;;;;33.03;25.13;;;;;;;;;;4999819;28;20364;-76
2023/03/31 00:19:32;;;;;;;28.40;21.88;;;;;;;;;;4997688;28;20037;-75
2023/03/31 00:22:00;;;;;;;23.13;17.13;;;;;;;;;;5021094;28;20060;-76
2023/03/31 00:24:26;;;;;;;22.35;16.00;;;;;;;;;;5017106;28;20033;-76
2023/03/31 00:26:52;;;;;;;19.40;15.70;;;;;;;;;;5014424;28;20025;-78
2023/03/31 00:29:17;;;;;;;20.63;14.80;;;;;;;;;;5008088;28;20040;-77
2023/03/31 00:31:42;;;;;;;20.80;14.60;;;;;;;;;;5018891;28;20082;-77
2023/03/31 00:34:08;;;;;;;22.48;16.23;;;;;;;;;;5014537;28;20029;-75
2023/03/31 00:36:35;;;;;;;23.73;16.90;;;;;;;;;;5018578;28;20341;-76
2023/03/31 00:39:05;;;;;;;23.67;18.15;;;;;;;;;;5011611;28;20034;-76
2023/03/31 00:41:31;;;;;;;23.13;17.20;;;;;;;;;;5006157;28;20087;-76
2023/03/31 00:44:26;;;;;;;20.65;13.95;;;;;;;;;;5015609;28;20021;-77
2023/03/31 00:47:01;;;;;;;20.65;15.18;;;;;;;;;;5011531;28;20049;-76
2023/03/31 00:49:32;;;;;;;19.45;13.43;;;;;;;;;;5017994;28;20040;-75
2023/03/31 00:52:12;;;;;;;19.00;14.40;;;;;;;;;;5015278;28;20018;-75
2023/03/31 00:54:39;;;;;;;19.63;14.43;;;;;;;;;;5014684;28;20017;-75
2023/03/31 00:57:05;;;;;;;18.70;12.20;;;;;;;;;;5013017;28;20445;-76
2023/03/31 00:59:33;;;;;;;15.15;9.77;;;;;;;;;;5009730;28;20028;-76
2023/03/31 01:02:01;;;;;;;12.43;9.45;;;;;;;;;;5013522;28;20033;-78
2023/03/31 01:04:28;;;;;;;13.18;9.70;;;;;;;;;;5014767;28;20444;-77
2023/03/31 01:06:59;;;;;;;10.48;7.60;;;;;;;;;;5015686;28;20331;-76
2023/03/31 01:09:29;;;;;;;9.77;6.80;;;;;;;;;;5017860;28;20240;-77
2023/03/31 01:11:55;;;;;;;10.15;6.57;;;;;;;;;;5011959;28;20024;-76
2023/03/31 01:14:20;;;;;;;9.80;6.50;;;;;;;;;;5009026;28;20025;-76
2023/03/31 01:16:46;;;;;;;12.95;6.68;;;;;;;;;;5008065;28;20033;-75
2023/03/31 01:19:28;;;;;;;11.68;8.07;;;;;;;;;;5016053;28;20061;-77
2023/03/31 01:22:16;;;;;;;8.13;6.03;;;;;;;;;;5013606;28;20026;-75
2023/03/31 01:24:46;;;;;;;10.73;6.97;;;;;;;;;;5005244;28;20084;-76
2023/03/31 01:27:12;;;;;;;;;;;;;;;;;;5018379;28;20109;-76
2023/03/31 01:29:56;;;;;;;11.40;6.45;;;;;;;;;;5015972;28;20019;-76
2023/03/31 01:32:46;;;;;;;9.90;6.20;;;;;;;;;;5016640;28;20524;-76
2023/03/31 01:35:35;;;;;;;7.45;5.68;;;;;;;;;;5016655;28;20104;-75
2023/03/31 01:38:00;;;;;;;12.18;7.93;;;;;;;;;;5007326;28;20041;-77
2023/03/31 01:40:41;;;;;;;9.00;6.95;;;;;;;;;;5013757;28;20036;-75
2023/03/31 01:43:25;;;;;;;13.05;7.88;;;;;;;;;;5017346;28;20118;-75
2023/03/31 01:45:53;;;;;;;11.73;5.50;;;;;;;;;;5016715;28;20025;-74
2023/03/31 01:48:29;;;;;;;8.48;5.18;;;;;;;;;;5017748;28;20029;-74
2023/03/31 01:51:00;;;;;;;8.75;5.15;;;;;;;;;;5011574;28;20034;-76
2023/03/31 01:53:25;;;;;;;7.25;4.90;;;;;;;;;;5015513;28;20040;-74
2023/03/31 01:56:00;;;;;;;9.88;6.70;;;;;;;;;;5015370;28;20021;-76
2023/03/31 01:58:31;;;;;;;13.40;7.30;;;;;;;;;;5011967;28;20025;-73
2023/03/31 02:01:05;;;;;;;8.63;4.80;;;;;;;;;;5018481;28;20029;-73
2023/03/31 02:03:33;;;;;;;6.30;4.35;;;;;;;;;;5014338;28;20076;-76
2023/03/31 02:06:01;;;;;;;6.40;4.70;;;;;;;;;;5014851;28;20503;-74
2023/03/31 02:08:32;;;;;;;9.32;6.40;;;;;;;;;;5013896;28;20114;-73
2023/03/31 02:10:58;;;;;;;9.48;5.57;;;;;;;;;;5014013;28;20068;-76
2023/03/31 02:13:26;;;;;;;8.50;4.68;;;;;;;;;;5015912;28;20421;-73
2023/03/31 02:15:53;;;;;;;9.48;6.20;;;;;;;;;;5015608;28;20087;-75
2023/03/31 02:18:20;;;;;;;8.35;5.88;;;;;;;;;;5012991;28;20030;-75
2023/03/31 02:20:47;;;;;;;8.90;6.28;;;;;;;;;;5013222;28;20068;-75
2023/03/31 02:23:14;;;;;;;8.73;6.38;;;;;;;;;;5001746;28;20314;-75
2023/03/31 02:25:46;;;;;;;9.98;6.50;;;;;;;;;;5008102;28;20070;-75
2023/03/31 02:28:15;;;;;;;10.75;7.32;;;;;;;;;;5013227;28;20022;-75
2023/03/31 02:30:52;;;;;;;10.38;5.60;;;;;;;;;;5010218;28;20090;-75
2023/03/31 02:33:18;;;;;;;9.00;5.25;;;;;;;;;;5008264;28;20451;-74
2023/03/31 02:35:43;;;;;;;7.50;5.07;;;;;;;;;;5017802;28;20033;-74
2023/03/31 02:38:10;;;;;;;5.18;3.70;;;;;;;;;;5012530;28;20017;-76
2023/03/31 02:40:36;;;;;;;5.82;4.45;;;;;;;;;;5031488;28;20031;-75
2023/03/31 02:43:01;;;;;;;6.53;4.82;;;;;;;;;;5009967;28;20033;-76
2023/03/31 02:45:43;;;;;;;7.05;3.92;;;;;;;;;;5009645;28;20080;-75
2023/03/31 02:48:10;;;;;;;7.35;4.68;;;;;;;;;;5011688;28;20349;-74
2023/03/31 02:50:58;;;;;;;5.95;4.57;;;;;;;;;;5012880;28;20060;-75
2023/03/31 02:53:49;;;;;;;9.18;5.43;;;;;;;;;;5003589;28;20037;-75
2023/03/31 02:56:15;;;;;;;14.68;9.07;;;;;;;;;;4998006;28;20048;-75
2023/03/31 02:59:01;;;;;;;7.15;5.05;;;;;;;;;;5015026;28;20029;-75
2023/03/31 03:01:34;;;;;;;7.78;6.50;;;;;;;;;;5010351;28;20136;-74
2023/03/31 03:03:59;;;;;;;7.22;6.05;;;;;;;;;;5002432;28;20030;-75
2023/03/31 03:06:26;;;;;;;12.60;7.13;;;;;;;;;;5002965;28;20037;-76
2023/03/31 03:09:11;;;;;;;8.05;6.53;;;;;;;;;;5005603;28;20033;-76
2023/03/31 03:11:45;;;;;;;11.00;7.35;;;;;;;;;;5013425;28;20100;-75
2023/03/31 03:14:40;;;;;;;13.60;8.05;;;;;;;;;;5028766;28;20326;-75
2023/03/31 03:17:11;;;;;;;13.15;7.57;;;;;;;;;;4995783;28;20049;-77
2023/03/31 03:19:36;;;;;;;10.48;7.47;;;;;;;;;;4997259;28;20916;-76
2023/03/31 03:22:02;;;;;;;10.43;7.05;;;;;;;;;;4994777;28;20038;-76
2023/03/31 03:24:33;;;;;;;12.00;7.53;;;;;;;;;;4994813;28;20034;-75
2023/03/31 03:26:59;;;;;;;13.38;7.85;;;;;;;;;;4982524;28;20184;-77
2023/03/31 03:29:26;;;;;;;12.27;8.57;;;;;;;;;;4995354;28;20046;-75
2023/03/31 03:31:51;;;;;;;12.27;7.72;;;;;;;;;;4995416;28;20026;-77
2023/03/31 03:34:17;;;;;;;14.73;8.63;;;;;;;;;;4996688;28;20045;-76
2023/03/31 03:36:43;;;;;;;15.32;9.10;;;;;;;;;;4983882;28;20056;-75
2023/03/31 03:39:08;;;;;;;14.02;8.77;;;;;;;;;;4991954;28;20606;-77
2023/03/31 03:41:33;;;;;;;13.05;7.78;;;;;;;;;;4995815;28;20053;-75
2023/03/31 03:43:59;;;;;;;6.50;4.55;;;;;;;;;;4989790;28;20968;-76
2023/03/31 03:46:25;;;;;;;9.57;5.50;;;;;;;;;;4981836;28;20051;-75
2023/03/31 03:48:50;;;;;;;15.88;9.98;;;;;;;;;;4991828;28;20142;-75
2023/03/31 03:51:16;;;;;;;6.93;5.00;;;;;;;;;;4973363;28;20041;-76
2023/03/31 03:53:41;;;;;;;14.30;8.23;;;;;;;;;;4982849;28;20037;-75
2023/03/31 03:56:06;;;;;;;20.23;13.70;;;;;;;;;;4993882;28;20025;-75
2023/03/31 03:58:32;;;;;;;38.05;25.90;;;;;;;;;;4990058;28;20026;-77
2023/03/31 04:00:57;;;;;;;26.80;19.67;;;;;;;;;;4990748;28;20116;-75
2023/03/31 04:03:23;;;;;;;26.00;17.60;;;;;;;;;;5001940;28;20022;-75
2023/03/31 04:05:49;;;;;;;14.48;9.73;;;;;;;;;;5031345;28;20528;-75
2023/03/31 04:08:14;;;;;;;13.30;8.30;;;;;;;;;;5016149;28;20068;-75
2023/03/31 04:10:48;;;;;;;10.60;7.50;;;;;;;;;;5010898;28;20065;-77
2023/03/31 04:13:16;;;;;;;22.17;14.00;;;;;;;;;;5014952;28;20104;-76
2023/03/31 04:15:42;;;;;;;26.60;17.58;;;;;;;;;;5015343;28;20037;-73
2023/03/31 04:18:09;;;;;;;20.33;12.88;;;;;;;;;;5005699;28;20026;-75
2023/03/31 04:20:36;;;;;;;22.42;12.70;;;;;;;;;;5014501;28;20118;-74
2023/03/31 04:23:04;;;;;;;50.85;39.17;;;;;;;;;;5016102;28;20029;-75
2023/03/31 04:25:30;;;;;;;167.40;127.82;;;;;;;;;;5001658;28;20049;-76
2023/03/31 04:27:55;;;;;;;51.20;39.33;;;;;;;;;;5016650;28;20444;-74
2023/03/31 04:30:23;;;;;;;66.93;50.78;;;;;;;;;;5019618;28;20029;-75
2023/03/31 04:32:49;;;;;;;53.72;39.53;;;;;;;;;;5002560;28;20032;-76
2023/03/31 04:35:16;;;;;;;17.13;12.57;;;;;;;;;;5003027;28;20021;-75
2023/03/31 04:37:42;;;;;;;13.85;9.68;;;;;;;;;;5026310;28;20441;-75
2023/03/31 04:40:08;;;;;;;44.65;32.90;;;;;;;;;;5018674;28;20037;-75
2023/03/31 04:42:34;;;;;;;25.85;19.45;;;;;;;;;;5014586;28;20025;-75
2023/03/31 04:44:59;;;;;;;95.22;71.82;;;;;;;;;;5016544;28;20041;-76
2023/03/31 04:47:25;;;;;;;278.08;219.90;;;;;;;;;;5010692;28;20104;-78
2023/03/31 04:49:50;;;;;;;107.43;84.40;;;;;;;;;;5019081;28;20025;-75
2023/03/31 04:52:15;;;;;;;89.07;63.53;;;;;;;;;;5016779;28;20029;-75
2023/03/31 04:54:41;;;;;;;35.83;25.17;;;;;;;;;;5013885;28;20021;-75
2023/03/31 04:57:06;;;;;;;46.75;27.90;;;;;;;;;;5013478;28;20128;-75
2023/03/31 04:59:31;;;;;;;42.45;29.98;;;;;;;;;;5005434;28;20108;-75
2023/03/31 05:01:57;;;;;;;61.78;47.22;;;;;;;;;;5010906;28;20417;-75
2023/03/31 05:04:22;;;;;;;183.43;104.03;;;;;;;;;;5002213;28;20025;-74
2023/03/31 05:06:47;;;;;;;298.80;167.40;;;;;;;;;;5005089;28;20049;-73
2023/03/31 05:09:13;;;;;;;243.73;154.38;;;;;;;;;;5003845;28;20033;-74
2023/03/31 05:11:38;;;;;;;190.55;122.50;;;;;;;;;;5003410;28;20029;-75
2023/03/31 05:14:03;;;;;;;54.78;37.75;;;;;;;;;;5001569;28;20040;-75
2023/03/31 05:16:29;;;;;;;16.42;12.27;;;;;;;;;;5002846;28;20467;-73
2023/03/31 05:18:54;;;;;;;16.75;10.98;;;;;;;;;;5004588;28;20025;-75
2023/03/31 05:21:20;;;;;;;8.23;5.15;;;;;;;;;;5004250;28;20042;-72
2023/03/31 05:23:45;;;;;;;13.73;8.27;;;;;;;;;;5009962;28;20041;-72
2023/03/31 05:26:12;;;;;;;7.55;4.15;;;;;;;;;;5016601;28;20026;-74
2023/03/31 05:28:37;;;;;;;25.90;20.55;;;;;;;;;;5007705;28;20325;-72
2023/03/31 05:31:03;;;;;;;40.72;30.70;;;;;;;;;;5008312;28;20083;-74
2023/03/31 05:33:29;;;;;;;51.60;41.20;;;;;;;;;;5010826;28;20437;-72
2023/03/31 05:35:55;;;;;;;66.32;54.15;;;;;;;;;;5006388;28;20040;-76
2023/03/31 05:38:20;;;;;;;45.95;36.50;;;;;;;;;;5001118;28;20028;-73
2023/03/31 05:40:46;;;;;;;35.28;29.60;;;;;;;;;;5003075;28;20041;-75
2023/03/31 05:43:11;;;;;;;31.00;20.73;;;;;;;;;;5002377;28;20037;-75
2023/03/31 05:45:36;;;;;;;25.67;18.30;;;;;;;;;;5005806;28;20038;-74
2023/03/31 05:48:02;;;;;;;24.48;17.85;;;;;;;;;;5002393;28;20075;-75
2023/03/31 05:50:27;;;;;;;15.80;11.10;;;;;;;;;;5015366;28;20040;-75
2023/03/31 05:52:53;;;;;;;15.30;9.70;;;;;;;;;;5013298;28;20047;-74
2023/03/31 05:55:18;;;;;;;10.35;8.20;;;;;;;;;;5014417;28;20108;-73
2023/03/31 05:57:43;;;;;;;16.27;9.48;;;;;;;;;;5014527;28;20435;-74
2023/03/31 06:00:10;;;;;;;19.00;12.93;;;;;;;;;;5005460;28;20017;-75
2023/03/31 06:02:35;;;;;;;17.77;10.55;;;;;;;;;;5001256;28;20354;-75
2023/03/31 06:05:01;;;;;;;9.27;6.00;;;;;;;;;;5013729;28;20037;-76
2023/03/31 06:07:26;;;;;;;19.40;11.23;;;;;;;;;;5015653;28;20421;-75
2023/03/31 06:09:51;;;;;;;12.98;6.78;;;;;;;;;;5013197;28;20061;-75
2023/03/31 06:12:17;;;;;;;10.98;4.35;;;;;;;;;;5001853;28;20413;-76
2023/03/31 06:14:42;;;;;;;11.13;6.07;;;;;;;;;;5015169;28;20048;-75
2023/03/31 06:17:07;;;;;;;11.50;7.07;;;;;;;;;;5013987;28;20409;-75
2023/03/31 06:19:33;;;;;;;8.65;5.47;;;;;;;;;;5015664;28;20654;-76
2023/03/31 06:21:58;;;;;;;8.20;4.60;;;;;;;;;;5013868;28;20039;-74
2023/03/31 06:24:23;;;;;;;11.70;7.13;;;;;;;;;;5013146;28;20432;-74
2023/03/31 06:26:48;;;;;;;37.97;26.00;;;;;;;;;;5030896;28;20036;-74
2023/03/31 06:29:14;;;;;;;14.70;8.90;;;;;;;;;;5014814;28;20033;-77
2023/03/31 06:31:39;;;;;;;14.13;7.55;;;;;;;;;;5014355;28;20132;-75
2023/03/31 06:34:05;;;;;;;9.35;4.78;;;;;;;;;;5015267;28;20028;-75
2023/03/31 06:36:30;;;;;;;12.75;7.90;;;;;;;;;;5015333;28;20018;-75
2023/03/31 06:38:56;;;;;;;12.65;7.15;;;;;;;;;;5015069;28;20048;-76
2023/03/31 06:41:21;;;;;;;9.88;7.20;;;;;;;;;;5013364;28;20025;-74
2023/03/31 06:43:46;;;;;;;9.45;7.15;;;;;;;;;;5015425;28;20023;-74
2023/03/31 06:46:12;;;;;;;27.15;20.58;;;;;;;;;;5015282;28;20045;-74
2023/03/31 06:48:37;;;;;;;26.48;17.52;;;;;;;;;;5013300;28;20037;-73
2023/03/31 06:51:04;;;;;;;8.93;5.72;;;;;;;;;;5015007;28;20404;-74
2023/03/31 06:53:30;;;;;;;13.00;7.43;;;;;;;;;;5014297;28;20039;-74
2023/03/31 06:55:55;;;;;;;12.65;8.77;;;;;;;;;;5015746;28;20022;-76
2023/03/31 06:58:21;;;;;;;38.28;27.50;;;;;;;;;;5014603;28;20079;-75
2023/03/31 07:00:46;;;;;;;27.50;18.10;;;;;;;;;;5014608;28;20061;-74
2023/03/31 07:03:12;;;;;;;19.00;13.32;;;;;;;;;;5013075;28;20128;-74
2023/03/31 07:05:38;;;;;;;17.88;14.27;;;;;;;;;;5014277;28;20421;-75
2023/03/31 07:08:03;;;;;;;17.40;12.98;;;;;;;;;;5017273;28;20061;-75
2023/03/31 07:10:29;;;;;;;14.90;12.43;;;;;;;;;;5011890;28;20060;-77
2023/03/31 07:12:55;;;;;;;21.52;16.40;;;;;;;;;;5014335;28;20032;-76
2023/03/31 07:15:21;;;;;;;14.73;10.20;;;;;;;;;;5016215;28;20360;-75
2023/03/31 07:17:49;;;;;;;17.20;12.20;;;;;;;;;;5014092;28;20112;-75
2023/03/31 07:20:15;;;;;;;18.67;14.48;;;;;;;;;;5012995;28;20025;-76
2023/03/31 07:22:41;;;;;;;64.03;44.83;;;;;;;;;;5011334;28;20099;-75
2023/03/31 07:25:07;;;;;;;30.52;26.25;;;;;;;;;;5014754;28;20029;-75
2023/03/31 07:27:33;;;;;;;14.23;10.27;;;;;;;;;;5016074;28;20026;-76
2023/03/31 07:29:58;;;;;;;14.32;9.52;;;;;;;;;;5015086;28;20124;-75
2023/03/31 07:32:23;;;;;;;22.45;15.80;;;;;;;;;;5015961;28;20443;-75
2023/03/31 07:34:48;;;;;;;14.10;9.23;;;;;;;;;;5014717;28;20013;-77
2023/03/31 07:37:14;;;;;;;13.40;7.22;;;;;;;;;;5027669;28;20030;-76
2023/03/31 07:39:40;;;;;;;21.67;15.82;;;;;;;;;;5008803;28;20095;-75
2023/03/31 07:42:05;;;;;;;32.45;26.95;;;;;;;;;;5002591;28;20025;-76
2023/03/31 07:44:34;;;;;;;12.63;8.20;;;;;;;;;;5004467;28;20030;-76
2023/03/31 07:47:03;;;;;;;10.38;6.25;;;;;;;;;;5004702;28;20085;-78
2023/03/31 07:49:29;;;;;;;21.33;11.35;;;;;;;;;;5006464;28;20036;-76
2023/03/31 07:51:54;;;;;;;8.00;6.30;;;;;;;;;;5005476;28;20030;-76
2023/03/31 07:54:20;;;;;;;11.68;6.45;;;;;;;;;;5004522;28;20060;-75
2023/03/31 07:56:45;;;;;;;12.07;8.50;;;;;;;;;;5005218;28;20297;-74
2023/03/31 07:59:11;;;;;;;12.88;7.65;;;;;;;;;;5003908;28;20041;-74
2023/03/31 08:01:36;;;;;;;10.30;5.95;;;;;;;;;;5005028;28;20132;-74
2023/03/31 08:04:01;;;;;;;14.00;8.93;;;;;;;;;;5020067;28;20079;-76
2023/03/31 08:06:28;;;;;;;8.57;7.35;;;;;;;;;;5004225;28;20433;-73
2023/03/31 08:08:54;;;;;;;12.95;10.00;;;;;;;;;;5003394;28;20026;-78
2023/03/31 08:11:20;;;;;;;12.18;9.07;;;;;;;;;;5005814;28;20033;-75
2023/03/31 08:13:45;;;;;;;16.83;10.65;;;;;;;;;;5004267;28;20037;-75
2023/03/31 08:16:11;;;;;;;21.33;14.25;;;;;;;;;;5004686;28;20044;-75
2023/03/31 08:18:36;;;;;;;20.55;14.68;;;;;;;;;;5018509;28;20045;-75
2023/03/31 08:21:01;;;;;;;20.60;16.05;;;;;;;;;;5005898;28;20029;-75
2023/03/31 08:23:27;;;;;;;19.55;15.70;;;;;;;;;;5002992;28;20079;-75
2023/03/31 08:25:52;;;;;;;12.30;8.80;;;;;;;;;;5004197;28;20037;-74
2023/03/31 08:28:17;;;;;;;20.63;14.60;;;;;;;;;;5004270;28;20032;-73
2023/03/31 08:30:43;;;;;;;15.00;10.43;;;;;;;;;;5004542;28;20029;-73
2023/03/31 08:33:11;;;;;;;13.95;8.13;;;;;;;;;;5005746;28;20025;-73
2023/03/31 08:35:36;;;;;;;14.15;10.68;;;;;;;;;;5003923;28;20049;-73
2023/03/31 08:38:02;;;;;;;19.25;11.95;;;;;;;;;;5003820;28;20068;-73
2023/03/31 08:40:28;;;;;;;16.42;9.75;;;;;;;;;;5003633;28;20032;-74
2023/03/31 08:43:01;;;;;;;12.52;10.43;;;;;;;;;;5003762;28;20038;-74
2023/03/31 08:45:30;;;;;;;27.70;19.25;;;;;;;;;;5004348;28;20021;-73
2023/03/31 08:48:01;;;;;;;28.37;21.10;;;;;;;;;;5006101;28;20047;-74
2023/03/31 08:50:29;;;;;;;12.00;9.80;;;;;;;;;;4999225;28;20045;-73
2023/03/31 08:53:02;;;;;;;23.45;16.15;;;;;;;;;;5004209;28;20056;-73
2023/03/31 08:55:33;;;;;;;24.35;19.95;;;;;;;;;;5018815;28;20776;-75
2023/03/31 08:58:00;;;;;;;19.45;15.32;;;;;;;;;;5003547;28;20454;-75
2023/03/31 09:00:26;;;;;;;17.95;15.60;;;;;;;;;;5003181;28;20119;-74
2023/03/31 09:03:01;;;;;;;10.52;8.30;;;;;;;;;;5005282;28;20022;-74
2023/03/31 09:05:26;;;;;;;20.35;17.23;;;;;;;;;;5004399;28;20155;-74
2023/03/31 09:07:54;;;;;;;21.98;16.42;;;;;;;;;;5003375;28;20033;-75
2023/03/31 09:10:28;;;;;;;26.60;19.85;;;;;;;;;;5004357;28;20029;-79
2023/03/31 09:13:00;;;;;;;26.27;21.17;;;;;;;;;;5004507;28;20029;-77
2023/03/31 09:15:33;;;;;;;25.48;19.38;;;;;;;;;;5003027;28;20455;-77
2023/03/31 09:18:03;;;;;;;15.30;10.27;;;;;;;;;;5000854;28;20029;-76
2023/03/31 09:20:33;;;;;;;16.30;11.07;;;;;;;;;;5001944;28;20490;-76
2023/03/31 09:23:11;;;;;;;17.77;12.07;;;;;;;;;;5002999;28;20431;-74
2023/03/31 09:25:38;;;;;;;10.88;8.00;;;;;;;;;;5005108;28;20025;-74
2023/03/31 09:28:08;;;;;;;42.90;31.02;;;;;;;;;;5004028;28;20373;-75
2023/03/31 09:30:34;;;;;;;9.48;7.10;;;;;;;;;;5001964;28;20076;-77
2023/03/31 09:33:05;;;;;;;22.73;15.48;;;;;;;;;;5004615;28;20044;-75
2023/03/31 09:35:32;;;;;;;14.50;11.07;;;;;;;;;;5003971;28;20148;-76
2023/03/31 09:37:58;;;;;;;17.40;13.30;;;;;;;;;;5001483;28;20037;-75
2023/03/31 09:40:24;;;;;;;11.98;8.63;;;;;;;;;;5017967;28;20029;-75
2023/03/31 09:43:00;;;;;;;8.73;6.55;;;;;;;;;;5002714;28;20027;-75
2023/03/31 09:45:26;;;;;;;12.98;9.43;;;;;;;;;;5003812;28;20037;-76
2023/03/31 09:47:53;;;;;;;17.42;13.32;;;;;;;;;;5015342;28;20053;-75
2023/03/31 09:50:19;;;;;;;12.85;7.45;;;;;;;;;;5013991;28;20588;-75
2023/03/31 09:52:48;;;;;;;29.40;17.88;;;;;;;;;;5018251;28;20025;-75
2023/03/31 09:55:18;;;;;;;11.52;7.70;;;;;;;;;;5003422;28;20038;-76
2023/03/31 09:57:44;;;;;;;15.68;9.80;;;;;;;;;;4999370;28;20039;-75
2023/03/31 10:00:16;;;;;;;10.15;7.35;;;;;;;;;;5014366;28;20041;-75
2023/03/31 10:02:52;;;;;;;10.00;5.60;;;;;;;;;;5011543;28;20021;-76
2023/03/31 10:05:24;;;;;;;6.05;3.88;;;;;;;;;;5013705;28;20030;-75
2023/03/31 10:07:49;;;;;;;12.68;6.95;;;;;;;;;;5016039;28;20343;-75
2023/03/31 10:10:23;;;;;;;9.48;6.78;;;;;;;;;;5013877;28;20395;-76
2023/03/31 10:12:50;;;;;;;10.90;8.57;;;;;;;;;;5013702;28;20396;-76
2023/03/31 10:15:20;;;;;;;7.90;5.15;;;;;;;;;;5015570;28;20051;-75
2023/03/31 10:17:46;;;;;;;9.60;5.97;;;;;;;;;;5014459;28;20121;-76
2023/03/31 10:20:20;;;;;;;11.40;6.65;;;;;;;;;;5012800;28;20167;-76
2023/03/31 10:22:46;;;;;;;10.95;5.55;;;;;;;;;;5013837;28;20124;-76
2023/03/31 10:25:15;;;;;;;8.60;6.18;;;;;;;;;;5012248;28;20065;-77
2023/03/31 10:27:44;;;;;;;28.80;20.52;;;;;;;;;;4992430;28;20091;-76
2023/03/31 10:30:10;;;;;;;13.02;9.55;;;;;;;;;;5015608;28;21367;-79
2023/03/31 10:32:42;;;;;;;13.98;7.43;;;;;;;;;;5011556;28;20028;-75
2023/03/31 10:35:19;;;;;;;8.13;6.15;;;;;;;;;;5012528;28;20026;-77
2023/03/31 10:37:46;;;;;;;7.05;6.25;;;;;;;;;;5015649;28;20086;-79
2023/03/31 10:40:19;;;;;;;9.20;7.38;;;;;;;;;;5016573;28;20101;-76
2023/03/31 10:42:46;;;;;;;8.63;6.95;;;;;;;;;;5014852;28;20063;-76
2023/03/31 10:45:24;;;;;;;16.90;9.35;;;;;;;;;;5016909;28;20025;-75
2023/03/31 10:47:52;;;;;;;10.73;9.02;;;;;;;;;;5016683;28;20048;-78
2023/03/31 10:50:17;;;;;;;8.95;5.80;;;;;;;;;;5013120;28;20033;-74
2023/03/31 10:52:44;;;;;;;14.30;9.68;;;;;;;;;;5014034;28;20033;-74
2023/03/31 10:55:13;;;;;;;16.45;11.18;;;;;;;;;;5011699;28;20025;-77
2023/03/31 10:57:39;;;;;;;18.45;8.95;;;;;;;;;;5014115;28;20141;-77
2023/03/31 11:00:13;;;;;;;9.52;5.95;;;;;;;;;;5015425;28;20156;-76
2023/03/31 11:02:57;;;;;;;7.18;3.67;;;;;;;;;;5015610;28;20034;-77
2023/03/31 11:05:30;;;;;;;9.57;6.97;;;;;;;;;;5012530;28;20037;-79
2023/03/31 11:08:05;;;;;;;11.45;8.57;;;;;;;;;;5011853;28;20118;-78
2023/03/31 11:10:34;;;;;;;13.70;9.18;;;;;;;;;;5011588;28;20025;-78
2023/03/31 11:13:03;;;;;;;9.05;6.90;;;;;;;;;;5012316;28;20101;-77
2023/03/31 11:15:32;;;;;;;15.48;9.65;;;;;;;;;;5014390;28;20025;-76
2023/03/31 11:18:09;;;;;;;13.43;9.80;;;;;;;;;;5015375;28;20036;-76
2023/03/31 11:20:43;;;;;;;8.13;5.90;;;;;;;;;;5010460;28;20041;-77
2023/03/31 11:23:27;;;;;;;9.48;5.88;;;;;;;;;;5013943;28;20438;-78
2023/03/31 11:26:02;;;;;;;8.80;5.78;;;;;;;;;;5015396;28;20425;-75
2023/03/31 11:28:36;;;;;;;24.08;18.42;;;;;;;;;;5015506;28;20041;-75
2023/03/31 11:31:01;;;;;;;9.23;8.00;;;;;;;;;;5014023;28;20040;-77
2023/03/31 11:33:38;;;;;;;7.67;4.00;;;;;;;;;;5014233;28;20033;-79
2023/03/31 11:36:12;;;;;;;10.55;7.22;;;;;;;;;;5016019;28;20570;-77
2023/03/31 11:38:56;;;;;;;4.72;3.83;;;;;;;;;;5013969;28;20022;-77
2023/03/31 11:41:30;;;;;;;7.18;5.15;;;;;;;;;;5011202;28;20453;-75
2023/03/31 11:44:02;;;;;;;12.70;7.85;;;;;;;;;;5013530;28;20026;-76
2023/03/31 11:46:46;;;;;;;7.03;5.07;;;;;;;;;;5011841;28;20077;-76
2023/03/31 11:49:21;;;;;;;13.00;8.43;;;;;;;;;;5014096;28;20041;-78
2023/03/31 11:51:49;;;;;;;11.60;9.10;;;;;;;;;;5006553;28;20029;-77
2023/03/31 11:54:24;;;;;;;6.03;5.32;;;;;;;;;;5013982;28;20030;-77
2023/03/31 11:56:50;;;;;;;8.55;5.85;;;;;;;;;;5014202;28;20040;-77
2023/03/31 11:59:17;;;;;;;9.40;5.28;;;;;;;;;;5012711;28;20321;-77
2023/03/31 12:01:51;;;;;;;10.48;7.90;;;;;;;;;;5012735;28;20026;-76
2023/03/31 12:04:27;;;;;;;8.10;4.60;;;;;;;;;;5013042;28;20108;-77
2023/03/31 12:06:57;;;;;;;8.00;6.32;;;;;;;;;;5011828;28;20032;-76
2023/03/31 12:09:26;;;;;;;7.95;6.15;;;;;;;;;;5015036;28;20048;-77
2023/03/31 12:11:57;;;;;;;11.43;8.32;;;;;;;;;;5015924;28;20091;-77
2023/03/31 12:14:26;;;;;;;10.82;7.00;;;;;;;;;;5013960;28;20121;-78
2023/03/31 12:16:53;;;;;;;45.40;25.02;;;;;;;;;;5011026;28;20037;-78
2023/03/31 12:19:21;;;;;;;22.60;12.18;;;;;;;;;;5010398;28;20052;-77
2023/03/31 12:21:49;;;;;;;26.92;13.43;;;;;;;;;;5015113;28;20425;-78
2023/03/31 12:24:14;;;;;;;39.72;21.70;;;;;;;;;;5015668;28;20041;-77
2023/03/31 12:26:47;;;;;;;38.05;23.25;;;;;;;;;;5014054;28;20022;-75
2023/03/31 12:29:28;;;;;;;18.45;11.55;;;;;;;;;;5019230;28;21050;-75
2023/03/31 12:31:56;;;;;;;6.95;5.03;;;;;;;;;;5019557;28;20447;-75
2023/03/31 12:34:23;;;;;;;7.75;5.20;;;;;;;;;;5014065;28;20038;-75
2023/03/31 12:36:55;;;;;;;10.02;7.88;;;;;;;;;;5012048;28;20054;-75
2023/03/31 12:39:38;;;;;;;9.30;4.75;;;;;;;;;;5002190;28;20342;-75
2023/03/31 12:42:22;;;;;;;12.70;6.18;;;;;;;;;;5005723;28;20033;-76
2023/03/31 12:45:03;;;;;;;7.38;6.10;;;;;;;;;;5004265;28;20407;-74
2023/03/31 12:47:29;;;;;;;10.30;7.32;;;;;;;;;;5019507;28;20554;-75
2023/03/31 12:50:03;;;;;;;49.10;29.42;;;;;;;;;;5003237;28;20026;-74
2023/03/31 12:52:42;;;;;;;177.75;93.90;;;;;;;;;;5004070;28;20068;-74
2023/03/31 12:55:10;;;;;;;34.08;18.98;;;;;;;;;;5008222;28;20035;-75
2023/03/31 12:57:36;;;;;;;31.70;16.38;;;;;;;;;;5003196;28;20461;-74
2023/03/31 13:00:06;;;;;;;8.63;5.18;;;;;;;;;;5002821;28;20033;-75
2023/03/31 13:02:31;;;;;;;10.82;4.95;;;;;;;;;;5003754;28;20025;-75
2023/03/31 13:04:57;;;;;;;15.68;10.20;;;;;;;;;;5006907;28;20342;-76
2023/03/31 13:07:25;;;;;;;7.38;4.97;;;;;;;;;;5005773;28;20108;-75
2023/03/31 13:09:55;;;;;;;7.60;5.13;;;;;;;;;;5014814;28;20429;-73
2023/03/31 13:12:22;;;;;;;13.55;8.63;;;;;;;;;;5012198;28;20026;-74
2023/03/31 13:14:50;;;;;;;6.80;4.50;;;;;;;;;;5016091;28;20048;-75
2023/03/31 13:17:21;;;;;;;7.18;3.15;;;;;;;;;;5011264;28;20037;-75
2023/03/31 13:19:47;;;;;;;57.08;29.15;;;;;;;;;;5017797;28;20040;-75
2023/03/31 13:22:31;;;;;;;15.43;9.32;;;;;;;;;;5005670;28;20034;-73
2023/03/31 13:25:15;;;;;;;39.60;26.27;;;;;;;;;;5005826;28;20022;-74
2023/03/31 13:27:52;;;;;;;11.30;6.18;;;;;;;;;;5016422;28;20041;-76
2023/03/31 13:30:35;;;;;;;8.05;4.43;;;;;;;;;;5014550;28;20044;-76
2023/03/31 13:33:09;;;;;;;8.43;4.60;;;;;;;;;;5012095;28;20060;-74
2023/03/31 13:35:35;;;;;;;10.63;7.05;;;;;;;;;;5015165;28;20029;-74
2023/03/31 13:38:20;;;;;;;3.97;2.97;;;;;;;;;;5014719;28;20061;-75
2023/03/31 13:40:55;;;;;;;8.48;4.97;;;;;;;;;;5014507;28;20042;-77
2023/03/31 13:43:29;;;;;;;5.47;3.58;;;;;;;;;;5002288;28;20487;-76
2023/03/31 13:46:13;;;;;;;7.38;4.80;;;;;;;;;;5013388;28;20025;-76
2023/03/31 13:48:39;;;;;;;9.02;4.70;;;;;;;;;;5012920;28;20034;-75
2023/03/31 13:51:20;;;;;;;5.90;3.58;;;;;;;;;;5016604;28;20041;-74
2023/03/31 13:53:48;;;;;;;7.65;5.50;;;;;;;;;;5016188;28;20364;-73
2023/03/31 13:56:32;;;;;;;8.27;4.88;;;;;;;;;;4993480;28;20057;-74
2023/03/31 13:59:16;;;;;;;15.77;11.80;;;;;;;;;;5002494;28;20108;-75
2023/03/31 14:01:47;;;;;;;23.05;16.02;;;;;;;;;;5017555;28;20049;-75
2023/03/31 14:04:31;;;;;;;11.93;7.07;;;;;;;;;;5015626;28;20038;-74
2023/03/31 14:06:59;;;;;;;10.60;6.03;;;;;;;;;;5013118;28;20018;-75
2023/03/31 14:09:27;;;;;;;13.23;7.75;;;;;;;;;;5016127;28;20052;-75
2023/03/31 14:11:53;;;;;;;8.38;4.55;;;;;;;;;;5014088;28;20023;-76
2023/03/31 14:14:18;;;;;;;12.00;4.22;;;;;;;;;;5012502;28;20033;-76
2023/03/31 14:16:47;;;;;;;9.32;4.70;;;;;;;;;;5006196;28;20044;-76
2023/03/31 14:19:31;;;;;;;9.23;4.90;;;;;;;;;;5010715;28;20152;-76
2023/03/31 14:21:59;;;;;;;9.80;6.00;;;;;;;;;;5002966;28;20456;-75
2023/03/31 14:24:43;;;;;;;7.03;3.30;;;;;;;;;;5014350;28;20025;-76
2023/03/31 14:27:17;;;;;;;8.27;4.38;;;;;;;;;;5016455;28;20025;-75
2023/03/31 14:29:51;;;;;;;6.78;4.95;;;;;;;;;;5014158;28;20030;-75
2023/03/31 14:32:19;;;;;;;6.63;4.63;;;;;;;;;;5014335;28;20523;-75
2023/03/31 14:35:08;;;;;;;9.93;5.37;;;;;;;;;;5007005;28;20370;-75
2023/03/31 14:37:34;;;;;;;6.70;3.70;;;;;;;;;;5005849;28;20079;-76
2023/03/31 14:40:00;;;;;;;7.47;4.97;;;;;;;;;;5012832;28;20440;-74
2023/03/31 14:42:35;;;;;;;6.57;3.50;;;;;;;;;;5002543;28;20098;-75